Time;durP1;ratioP1;P1;durP2;ratioP2;P2;SDS_P1;SDS_P2;PMS_P1;PMS_P2;Temp;Humidity;BMP_temperature;BMP_pressure;BME280_temperature;BME280_humidity;BME280_pressure;Samples;Min_cycle;Max_cycle;Signal;HPM_P1;HPM_P2
2022/04/28 00:01:55;;;;;;;8.82;2.95;;;;;;;5.39;44.30;102927.44;5033412;28;20043;-78
2022/04/28 00:04:21;;;;;;;3.42;2.03;;;;;;;5.31;44.60;102926.47;5034122;28;20119;-77
2022/04/28 00:06:47;;;;;;;7.57;2.67;;;;;;;5.19;44.72;102922.84;5034531;28;20044;-78
2022/04/28 00:09:12;;;;;;;5.70;2.67;;;;;;;5.35;44.42;102920.47;5031027;28;20583;-79
2022/04/28 00:11:38;;;;;;;4.95;1.60;;;;;;;5.49;44.55;102918.94;5034870;28;20025;-78
2022/04/28 00:14:03;;;;;;;6.70;2.15;;;;;;;5.56;44.01;102918.16;5064861;28;20052;-78
2022/04/28 00:16:29;;;;;;;7.60;1.90;;;;;;;5.73;43.88;102922.75;5033892;28;20275;-79
2022/04/28 00:18:54;;;;;;;3.80;2.15;;;;;;;5.82;43.73;102917.66;5031370;28;20041;-78
2022/04/28 00:21:20;;;;;;;5.30;1.90;;;;;;;5.94;43.49;102912.59;5067820;28;20632;-78
2022/04/28 00:23:46;;;;;;;9.25;2.67;;;;;;;5.91;43.64;102912.56;5034230;28;20049;-78
2022/04/28 00:26:12;;;;;;;7.60;2.10;;;;;;;5.97;43.47;102914.34;5049556;28;20407;-79
2022/04/28 00:28:38;;;;;;;6.25;2.28;;;;;;;5.99;43.60;102920.44;5034153;28;20102;-78
2022/04/28 00:31:04;;;;;;;4.57;1.65;;;;;;;5.96;43.71;102918.69;5066031;28;20155;-80
2022/04/28 00:33:31;;;;;;;4.82;2.05;;;;;;;5.95;43.74;102922.16;5063318;28;20067;-78
2022/04/28 00:35:57;;;;;;;9.73;2.58;;;;;;;5.96;43.53;102916.09;5049795;28;20032;-78
2022/04/28 00:38:23;;;;;;;5.05;1.98;;;;;;;5.94;44.01;102912.59;5065746;28;20044;-78
2022/04/28 00:40:48;;;;;;;6.28;3.28;;;;;;;5.91;43.36;102909.97;5036866;28;20094;-78
2022/04/28 00:43:20;;;;;;;4.43;1.85;;;;;;;5.90;43.95;102910.81;5049064;28;20037;-79
2022/04/28 00:45:47;;;;;;;9.32;2.72;;;;;;;5.85;43.82;102918.53;5049959;28;20234;-78
2022/04/28 00:50:59;;;;;;;10.43;3.35;;;;;;;5.39;44.32;102927.44;5065550;28;20036;-78
2022/04/28 00:53:28;;;;;;;6.28;2.72;;;;;;;5.27;44.87;102916.88;5046440;28;20046;-78
2022/04/28 00:55:54;;;;;;;4.95;2.80;;;;;;;5.14;45.08;102919.28;5047686;28;20095;-78
2022/04/28 00:58:20;;;;;;;7.25;3.15;;;;;;;5.08;45.05;102921.81;5047968;28;20646;-78
2022/04/28 01:00:46;;;;;;;5.60;2.40;;;;;;;4.89;45.35;102920.63;5032016;28;20048;-79
2022/04/28 01:03:12;;;;;;;4.90;2.42;;;;;;;4.59;45.64;102915.78;5044599;28;20040;-80
2022/04/28 01:05:38;;;;;;;3.90;2.53;;;;;;;4.34;46.23;102914.44;5047497;28;20139;-78
2022/04/28 01:08:06;;;;;;;6.70;2.10;;;;;;;4.27;46.48;102922.94;5062919;28;20037;-79
2022/04/28 01:10:32;;;;;;;8.40;3.15;;;;;;;4.14;46.71;102924.41;5030367;28;20079;-80
2022/04/28 01:12:58;;;;;;;5.05;2.28;;;;;;;3.99;47.09;102927.56;5031383;28;20037;-79
2022/04/28 01:15:23;;;;;;;4.82;2.70;;;;;;;3.87;47.05;102928.16;5035496;28;20033;-79
2022/04/28 01:17:49;;;;;;;4.43;2.38;;;;;;;3.80;47.02;102927.16;5030302;28;20037;-78
2022/04/28 01:20:15;;;;;;;4.85;3.00;;;;;;;3.61;47.36;102926.75;5032663;28;20057;-79
2022/04/28 01:22:42;;;;;;;4.32;2.33;;;;;;;3.39;48.02;102926.28;5050931;28;20095;-77
2022/04/28 01:25:12;;;;;;;8.30;2.88;;;;;;;3.24;48.24;102928.47;5080996;28;20044;-77
2022/04/28 01:27:39;;;;;;;8.85;2.50;;;;;;;3.27;48.19;102923.34;5032421;28;20123;-77
2022/04/28 01:30:15;;;;;;;5.25;3.15;;;;;;;3.23;48.59;102924.16;5064017;28;20021;-78
2022/04/28 01:32:48;;;;;;;10.32;3.22;;;;;;;3.33;48.36;102919.22;5033061;28;20036;-78
2022/04/28 01:35:13;;;;;;;4.10;3.10;;;;;;;3.28;48.48;102919.94;5030899;28;20731;-79
2022/04/28 01:37:39;;;;;;;7.43;2.78;;;;;;;3.21;48.70;102923.22;5066114;28;20041;-78
2022/04/28 01:40:12;;;;;;;6.60;2.33;;;;;;;3.10;48.84;102921.25;5037825;28;20017;-78
2022/04/28 01:42:39;;;;;;;4.95;2.35;;;;;;;3.16;48.30;102920.53;5050784;28;20041;-78
2022/04/28 01:45:07;;;;;;;7.57;3.20;;;;;;;3.18;48.82;102922.31;5067920;28;20032;-79
2022/04/28 01:47:36;;;;;;;7.35;3.00;;;;;;;3.08;48.63;102922.91;5036534;28;20052;-79
2022/04/28 01:50:21;;;;;;;12.90;2.70;;;;;;;3.10;48.59;102925.56;5038861;28;20033;-77
2022/04/28 01:56:16;;;;;;;6.28;2.92;;;;;;;3.09;48.46;102931.53;5054178;28;20052;-78
2022/04/28 01:58:54;;;;;;;11.15;3.17;;;;;;;3.10;48.76;102938.47;5052167;28;20057;-77
2022/04/28 02:01:32;;;;;;;5.80;2.70;;;;;;;3.07;48.55;102928.03;5068344;28;20037;-77
2022/04/28 02:03:57;;;;;;;6.63;3.05;;;;;;;3.08;48.69;102932.38;5052172;28;20055;-78
2022/04/28 02:06:23;;;;;;;5.97;3.17;;;;;;;3.14;48.34;102938.59;5038758;28;20029;-77
2022/04/28 02:08:50;;;;;;;7.05;2.78;;;;;;;3.01;48.83;102936.53;5037361;28;20529;-77
2022/04/28 02:11:16;;;;;;;5.20;3.28;;;;;;;3.07;49.09;102931.53;5031919;28;20056;-79
2022/04/28 02:14:01;;;;;;;5.45;3.10;;;;;;;3.29;49.20;102937.22;5053698;28;20074;-78
2022/04/28 02:16:45;;;;;;;7.10;3.30;;;;;;;3.43;49.18;102938.44;5054853;28;20040;-78
2022/04/28 02:19:19;;;;;;;8.68;3.38;;;;;;;3.63;48.83;102937.97;5057599;28;20650;-78
2022/04/28 02:21:44;;;;;;;7.72;3.58;;;;;;;3.71;48.59;102937.31;5069409;28;20278;-77
2022/04/28 02:24:12;;;;;;;7.53;3.80;;;;;;;3.80;48.77;102941.81;5036089;28;20029;-77
2022/04/28 02:26:38;;;;;;;6.45;3.60;;;;;;;3.89;48.18;102935.97;5037622;28;20086;-78
2022/04/28 02:29:03;;;;;;;8.57;3.92;;;;;;;3.93;47.96;102937.78;5037609;28;20106;-78
2022/04/28 02:31:34;;;;;;;8.00;3.85;;;;;;;3.94;48.37;102934.34;5053939;28;20028;-79
2022/04/28 02:34:00;;;;;;;7.28;3.55;;;;;;;4.04;47.81;102943.19;5068411;28;20041;-79
2022/04/28 02:36:37;;;;;;;4.82;3.30;;;;;;;3.97;48.01;102940.47;5068326;28;20024;-76
2022/04/28 02:39:04;;;;;;;7.60;3.55;;;;;;;3.99;47.41;102933.59;5051955;28;20056;-79
2022/04/28 02:41:31;;;;;;;9.90;3.00;;;;;;;4.00;47.88;102934.47;5040053;28;20072;-78
2022/04/28 02:43:57;;;;;;;8.05;3.40;;;;;;;3.86;47.86;102944.53;5051539;28;20076;-77
2022/04/28 02:46:23;;;;;;;8.68;3.35;;;;;;;3.87;48.29;102940.22;5040020;28;20541;-78
2022/04/28 02:48:57;;;;;;;9.52;4.25;;;;;;;3.89;48.58;102935.97;5050849;28;20049;-79
2022/04/28 02:51:23;;;;;;;9.45;3.47;;;;;;;3.95;48.14;102938.69;5055012;28;20028;-77
2022/04/28 02:53:49;;;;;;;7.32;3.50;;;;;;;3.91;48.41;102935.16;5050974;28;20045;-79
2022/04/28 02:56:15;;;;;;;12.15;3.97;;;;;;;3.91;48.58;102934.28;5039676;28;20029;-77
2022/04/28 02:58:41;;;;;;;5.13;3.47;;;;;;;3.93;48.40;102940.38;5051089;28;20539;-78
2022/04/28 03:01:08;;;;;;;10.90;3.40;;;;;;;3.93;48.76;102932.59;5069198;28;20079;-78
2022/04/28 03:03:34;;;;;;;8.52;4.60;;;;;;;3.94;48.54;102935.25;5051039;28;20037;-77
2022/04/28 03:11:30;;;;;;;8.18;3.47;;;;;;;3.74;48.15;102939.13;5052157;28;20080;-78
2022/04/28 03:13:56;;;;;;;12.25;3.83;;;;;;;3.72;48.40;102938.22;5053692;28;20057;-78
2022/04/28 03:16:24;;;;;;;5.45;3.33;;;;;;;3.79;48.41;102945.25;5072057;28;20029;-77
2022/04/28 03:18:59;;;;;;;7.32;3.80;;;;;;;3.69;48.01;102941.56;5034157;28;20563;-79
2022/04/28 03:21:24;;;;;;;10.10;4.15;;;;;;;3.52;48.18;102938.63;5053129;28;20040;-77
2022/04/28 03:23:51;;;;;;;6.50;2.97;;;;;;;3.37;48.65;102933.13;5053142;28;20041;-76
2022/04/28 03:26:16;;;;;;;6.10;2.97;;;;;;;3.31;48.82;102931.25;5069160;28;20123;-77
2022/04/28 03:28:42;;;;;;;3.92;3.10;;;;;;;3.34;48.74;102931.34;5035616;28;20620;-77
2022/04/28 03:31:09;;;;;;;8.50;3.47;;;;;;;3.33;48.87;102937.31;5038332;28;20033;-76
2022/04/28 03:33:52;;;;;;;6.40;3.30;;;;;;;3.35;48.85;102939.97;5050217;28;20075;-77
2022/04/28 03:39:02;;;;;;;6.40;3.03;;;;;;;3.43;48.84;102933.25;5066489;28;20041;-78
2022/04/28 03:41:27;;;;;;;8.60;4.07;;;;;;;3.46;48.76;102933.31;5039030;28;20216;-76
2022/04/28 03:43:53;;;;;;;6.43;3.33;;;;;;;3.58;49.10;102941.38;5047801;28;20271;-77
2022/04/28 03:46:19;;;;;;;9.32;4.55;;;;;;;3.73;49.00;102942.53;5069572;28;20032;-76
2022/04/28 03:48:45;;;;;;;6.05;2.95;;;;;;;3.87;49.28;102942.81;5048837;28;20029;-77
2022/04/28 03:51:11;;;;;;;9.70;4.18;;;;;;;3.95;49.18;102946.44;5032019;28;20036;-77
2022/04/28 03:53:38;;;;;;;5.82;3.55;;;;;;;4.07;49.33;102940.66;5066877;28;20060;-77
2022/04/28 03:56:05;;;;;;;5.80;3.10;;;;;;;4.20;48.69;102942.63;5067672;28;20044;-77
2022/04/28 03:58:32;;;;;;;11.25;3.78;;;;;;;4.35;48.63;102937.75;5033893;28;20037;-77
2022/04/28 04:00:58;;;;;;;7.20;4.22;;;;;;;4.40;48.64;102946.47;5034937;28;20450;-78
2022/04/28 04:03:36;;;;;;;6.88;3.08;;;;;;;4.52;48.82;102942.38;5046108;28;20496;-77
2022/04/28 04:06:02;;;;;;;6.63;3.15;;;;;;;4.62;48.79;102937.41;5049333;28;20029;-77
2022/04/28 04:08:27;;;;;;;12.43;3.72;;;;;;;4.70;48.49;102945.31;5046611;28;20060;-78
2022/04/28 04:11:09;;;;;;;9.23;4.05;;;;;;;4.80;48.57;102941.16;5038897;28;20099;-78
2022/04/28 04:13:34;;;;;;;10.43;3.13;;;;;;;4.79;49.04;102942.88;5037404;28;20041;-78
2022/04/28 04:16:00;;;;;;;4.97;3.10;;;;;;;4.84;48.71;102945.56;5050165;28;20092;-79
2022/04/28 04:18:29;;;;;;;7.90;3.75;;;;;;;4.88;48.83;102938.72;5042248;28;20087;-79
2022/04/28 04:21:04;;;;;;;5.40;2.58;;;;;;;4.88;49.04;102947.41;5034679;28;20056;-77
2022/04/28 04:23:31;;;;;;;8.10;3.25;;;;;;;4.91;49.04;102950.03;5042202;28;20080;-78
2022/04/28 04:25:58;;;;;;;5.35;2.53;;;;;;;4.94;49.50;102951.78;5033558;28;20032;-78
2022/04/28 04:28:24;;;;;;;8.27;3.25;;;;;;;4.92;49.31;102950.88;5062802;28;20037;-79
2022/04/28 04:34:00;;;;;;;9.65;2.97;;;;;;;4.96;50.13;102955.28;5061935;28;20045;-76
2022/04/28 04:36:27;;;;;;;6.22;3.03;;;;;;;5.13;50.14;102961.63;5049986;28;20044;-78
2022/04/28 04:38:53;;;;;;;10.63;3.15;;;;;;;5.20;49.82;102962.59;5038389;28;20045;-76
2022/04/28 04:41:19;;;;;;;10.05;3.45;;;;;;;5.20;49.67;102975.56;5039031;28;20342;-78
2022/04/28 04:43:45;;;;;;;6.80;2.10;;;;;;;5.14;49.97;102963.34;5037140;28;20053;-76
2022/04/28 04:46:11;;;;;;;6.10;2.28;;;;;;;5.05;49.96;102965.78;5044752;28;20044;-77
2022/04/28 04:48:55;;;;;;;9.23;2.40;;;;;;;5.13;50.08;102960.75;5063040;28;20044;-77
2022/04/28 04:51:35;;;;;;;11.85;2.22;;;;;;;5.11;50.04;102959.84;5068190;28;20040;-77
2022/04/28 05:09:57;;;;;;;6.05;2.33;;;;;;;6.52;48.22;102979.09;5049513;28;20056;-77
2022/04/28 05:12:23;;;;;;;9.20;2.17;;;;;;;6.48;48.35;102975.56;5044855;28;20029;-79
2022/04/28 05:14:51;;;;;;;6.22;2.67;;;;;;;6.49;48.15;102980.78;5046782;28;20070;-79
2022/04/28 05:17:18;;;;;;;6.40;1.52;;;;;;;6.42;47.92;102979.00;5031529;28;20081;-79
2022/04/28 05:20:06;;;;;;;4.60;1.50;;;;;;;6.61;48.30;102974.84;5049825;28;20041;-78
2022/04/28 05:22:50;;;;;;;9.38;1.85;;;;;;;7.90;45.63;102977.59;5059152;28;20063;-78
2022/04/28 05:25:54;;;;;;;7.03;1.77;;;;;;;8.43;43.38;102971.72;5003431;28;20124;-79
2022/04/28 05:28:38;;;;;;;4.50;1.75;;;;;;;7.98;45.26;102986.31;4986223;28;20133;-79
2022/04/28 05:31:33;;;;;;;8.43;1.75;;;;;;;8.20;43.48;102976.81;4997651;28;20652;-79
2022/04/28 05:34:01;;;;;;;7.72;1.77;;;;;;;7.94;43.95;102976.75;5044879;28;20061;-77
2022/04/28 05:36:50;;;;;;;4.20;0.95;;;;;;;7.65;45.02;102984.41;5044773;28;20045;-76
2022/04/28 05:39:16;;;;;;;6.32;1.40;;;;;;;7.45;45.86;102979.03;5035457;28;20041;-78
2022/04/28 05:41:43;;;;;;;4.35;1.33;;;;;;;8.51;44.71;102983.00;5048235;28;20451;-79
2022/04/28 05:46:53;;;;;;;10.80;2.17;;;;;;;8.67;42.68;102983.03;5060816;28;20040;-78
2022/04/28 05:49:21;;;;;;;6.88;1.42;;;;;;;8.33;44.16;102998.59;5048040;28;20029;-75
2022/04/28 05:51:46;;;;;;;8.13;1.20;;;;;;;8.26;44.23;103002.91;5031489;28;20084;-80
2022/04/28 05:54:13;;;;;;;7.97;1.05;;;;;;;8.19;44.68;103002.91;5062052;28;20040;-78
2022/04/28 05:56:38;;;;;;;4.85;0.90;;;;;;;8.68;44.95;103003.03;5030783;28;20090;-78
2022/04/28 05:59:12;;;;;;;5.75;1.70;;;;;;;10.24;41.28;103009.00;5033123;28;20052;-78
2022/04/28 06:01:41;;;;;;;7.35;1.52;;;;;;;12.46;36.98;103000.88;5061513;28;20071;-79
2022/04/28 06:04:09;;;;;;;4.72;0.90;;;;;;;12.34;36.63;103006.31;5062209;28;20138;-81
2022/04/28 06:06:37;;;;;;;2.53;0.70;;;;;;;14.70;33.40;103007.25;5045720;28;20029;-77
2022/04/28 06:09:08;;;;;;;4.90;0.80;;;;;;;15.34;32.15;103001.28;5046328;28;20395;-79
2022/04/28 06:11:34;;;;;;;7.18;0.70;;;;;;;14.34;31.83;103007.16;5033397;28;20123;-80
2022/04/28 06:14:00;;;;;;;3.40;0.30;;;;;;;12.39;35.52;103007.09;5029830;28;20096;-77
2022/04/28 06:16:44;;;;;;;9.25;0.85;;;;;;;11.18;37.18;103017.13;5048354;28;20123;-77
2022/04/28 06:19:17;;;;;;;3.67;0.40;;;;;;;12.50;36.87;103020.91;5033520;28;20041;-77
2022/04/28 06:22:09;;;;;;;6.70;0.80;;;;;;;13.26;34.14;103023.28;5025262;28;20045;-80
2022/04/28 06:24:40;;;;;;;8.50;1.17;;;;;;;15.22;31.42;103013.03;5045150;28;20041;-77
2022/04/28 06:27:07;;;;;;;9.43;0.80;;;;;;;13.79;32.18;103020.59;5026697;28;20037;-80
2022/04/28 06:29:34;;;;;;;2.50;0.40;;;;;;;12.22;35.13;103029.16;5029153;28;20124;-79
2022/04/28 06:32:02;;;;;;;3.42;0.60;;;;;;;13.76;32.90;103029.38;5027242;28;20791;-79
2022/04/28 06:34:51;;;;;;;4.90;0.60;;;;;;;12.83;33.54;103031.84;5036920;28;20044;-79
2022/04/28 06:37:18;;;;;;;4.90;0.47;;;;;;;11.24;36.28;103040.63;5063643;28;20033;-78
2022/04/28 06:39:51;;;;;;;7.95;0.77;;;;;;;10.08;38.59;103042.13;5062389;28;20119;-80
2022/04/28 06:42:17;;;;;;;5.60;1.30;;;;;;;9.96;39.02;103043.06;5015212;28;20041;-79
2022/04/28 06:45:02;;;;;;;3.53;0.73;;;;;;;9.73;39.69;103043.09;5059853;28;20032;-79
2022/04/28 06:47:51;;;;;;;10.13;0.50;;;;;;;10.38;37.93;103043.78;5058092;28;20049;-77
2022/04/28 06:50:35;;;;;;;4.80;0.43;;;;;;;10.12;39.08;103039.50;5046453;28;20534;-81
2022/04/28 06:53:19;;;;;;;7.97;0.80;;;;;;;9.67;39.63;103041.34;5044951;28;20043;-80
2022/04/28 06:55:49;;;;;;;7.95;0.47;;;;;;;9.24;41.01;103049.22;5044471;28;20124;-79
2022/04/28 06:58:15;;;;;;;8.40;0.60;;;;;;;8.90;41.68;103053.53;5043650;28;20036;-78
2022/04/28 07:00:43;;;;;;;7.50;0.75;;;;;;;9.24;41.25;103049.22;5062400;28;20029;-79
2022/04/28 07:03:09;;;;;;;5.68;1.23;;;;;;;10.95;38.55;103049.59;5058002;28;20037;-79
2022/04/28 07:05:34;;;;;;;8.15;0.98;;;;;;;14.71;31.63;103048.47;5044609;28;20032;-78
2022/04/28 07:08:03;;;;;;;6.88;1.25;;;;;;;14.10;31.50;103045.38;5043238;28;20191;-79
2022/04/28 07:10:33;;;;;;;5.20;0.35;;;;;;;12.17;34.30;103057.19;5046354;28;20506;-77
2022/04/28 07:12:58;;;;;;;3.17;0.40;;;;;;;11.38;35.46;103048.38;5033039;28;20076;-76
2022/04/28 07:15:27;;;;;;;8.00;1.13;;;;;;;11.14;35.02;103054.69;5042751;28;20041;-78
2022/04/28 07:18:22;;;;;;;13.02;0.98;;;;;;;10.76;35.53;103058.38;5063414;28;20119;-81
2022/04/28 07:20:49;;;;;;;6.43;0.68;;;;;;;11.29;34.86;103064.16;5026483;28;20642;-78
2022/04/28 07:23:15;;;;;;;6.90;0.80;;;;;;;10.63;36.70;103071.53;5027670;28;20037;-79
2022/04/28 07:25:41;;;;;;;8.63;0.73;;;;;;;10.27;38.18;103069.09;5050680;28;20040;-78
2022/04/28 07:28:07;;;;;;;6.70;1.30;;;;;;;10.22;38.89;103076.94;5063469;28;20036;-79
2022/04/28 07:30:51;;;;;;;8.20;1.13;;;;;;;10.42;37.98;103074.25;5047974;28;20047;-77
2022/04/28 07:33:37;;;;;;;6.38;0.40;;;;;;;10.67;38.17;103080.22;5061493;28;20079;-78
2022/04/28 07:36:29;;;;;;;7.43;1.08;;;;;;;10.14;38.41;103084.78;5057225;28;20036;-79
2022/04/28 07:39:13;;;;;;;8.73;1.00;;;;;;;10.32;37.90;103077.78;5047437;28;20279;-78
2022/04/28 07:41:59;;;;;;;7.00;1.38;;;;;;;10.25;38.05;103079.53;5031706;28;20068;-78
2022/04/28 07:44:24;;;;;;;6.70;0.75;;;;;;;10.26;37.39;103083.00;5043962;28;20064;-78
2022/04/28 07:46:50;;;;;;;7.78;1.27;;;;;;;10.37;37.27;103089.06;5041208;28;20489;-79
2022/04/28 07:49:16;;;;;;;7.13;0.85;;;;;;;10.17;37.62;103089.16;5062306;28;20109;-77
2022/04/28 07:51:42;;;;;;;5.47;0.90;;;;;;;10.06;37.78;103090.91;5062458;28;20033;-79
2022/04/28 07:54:08;;;;;;;5.82;0.80;;;;;;;10.20;36.54;103100.47;5030142;28;20044;-77
2022/04/28 07:56:33;;;;;;;6.95;0.90;;;;;;;10.89;36.45;103101.94;5027703;28;20348;-76
2022/04/28 07:58:59;;;;;;;7.13;0.63;;;;;;;11.67;34.98;103097.88;5043769;28;20060;-80
2022/04/28 08:01:42;;;;;;;5.28;1.10;;;;;;;12.58;34.16;103099.50;5030025;28;20039;-78
2022/04/28 08:04:08;;;;;;;16.00;1.48;;;;;;;12.65;32.42;103096.78;5025420;28;20037;-78
2022/04/28 08:06:35;;;;;;;11.15;1.25;;;;;;;12.48;33.33;103104.00;5029079;28;20029;-79
2022/04/28 08:09:01;;;;;;;2.78;0.35;;;;;;;12.63;32.88;103105.56;5025455;28;20101;-78
2022/04/28 08:11:27;;;;;;;6.03;0.60;;;;;;;12.39;32.96;103105.00;5044002;28;20202;-77
2022/04/28 08:13:52;;;;;;;10.50;1.58;;;;;;;11.41;35.28;103113.81;5024810;28;20482;-79
2022/04/28 08:16:23;;;;;;;6.90;0.95;;;;;;;10.96;36.34;103114.09;5034033;28;20036;-79
2022/04/28 08:18:49;;;;;;;5.88;1.30;;;;;;;10.09;37.76;103123.16;5046274;28;20055;-80
2022/04/28 08:21:22;;;;;;;13.38;1.02;;;;;;;11.39;35.41;103124.28;5023652;28;20047;-78
2022/04/28 08:23:48;;;;;;;8.75;0.60;;;;;;;13.70;31.69;103122.38;5057079;28;20037;-77
2022/04/28 08:26:14;;;;;;;7.22;0.80;;;;;;;13.60;31.47;103122.53;5047777;28;20059;-77
2022/04/28 08:28:42;;;;;;;3.88;0.60;;;;;;;12.89;33.08;103128.84;5040361;28;20118;-77
2022/04/28 08:31:08;;;;;;;5.28;0.63;;;;;;;12.17;34.27;103135.81;5035144;28;20055;-79
2022/04/28 08:33:34;;;;;;;6.30;0.80;;;;;;;11.39;34.76;103134.75;5033796;28;20060;-77
2022/04/28 08:36:00;;;;;;;5.22;1.00;;;;;;;12.08;33.99;103130.69;5035300;28;20135;-79
2022/04/28 08:38:27;;;;;;;6.55;0.75;;;;;;;13.88;31.29;103130.81;5022352;28;20488;-78
2022/04/28 08:41:01;;;;;;;11.18;1.27;;;;;;;14.13;30.10;103123.34;5056060;28;20029;-77
2022/04/28 08:43:59;;;;;;;7.18;0.82;;;;;;;13.22;31.93;103139.75;4975934;28;20039;-81
2022/04/28 08:49:12;;;;;;;7.38;1.15;;;;;;;11.00;35.98;103144.63;5062296;28;20036;-78
2022/04/28 08:51:38;;;;;;;9.40;1.30;;;;;;;11.28;36.27;103148.81;5045301;28;20041;-80
2022/04/28 08:54:05;;;;;;;14.90;0.98;;;;;;;11.44;34.94;103143.47;5043182;28;20029;-77
2022/04/28 08:56:31;;;;;;;11.15;0.70;;;;;;;10.52;37.86;103148.28;5032686;28;20049;-78
2022/04/28 08:59:02;;;;;;;7.07;0.70;;;;;;;12.10;35.43;103144.66;5044400;28;20089;-79
2022/04/28 09:01:28;;;;;;;12.30;0.98;;;;;;;12.48;33.67;103145.97;5033665;28;20456;-80
2022/04/28 09:04:17;;;;;;;9.25;1.20;;;;;;;12.54;32.74;103130.16;5038224;28;20071;-79
2022/04/28 09:06:53;;;;;;;14.55;1.50;;;;;;;11.96;34.11;103141.31;5040467;28;20040;-82
2022/04/28 09:09:57;;;;;;;8.85;0.85;;;;;;;12.27;34.36;103147.09;5039735;28;20105;-79
2022/04/28 09:12:26;;;;;;;6.75;0.65;;;;;;;12.11;34.04;103141.16;5040790;28;20430;-78
2022/04/28 09:15:27;;;;;;;10.65;1.17;;;;;;;11.74;34.52;103146.69;5024739;28;20040;-76
2022/04/28 09:18:04;;;;;;;4.45;0.65;;;;;;;12.93;33.57;103141.03;5023876;28;20095;-78
2022/04/28 09:20:30;;;;;;;5.63;0.50;;;;;;;13.11;32.93;103143.41;5021972;28;20025;-77
2022/04/28 09:23:01;;;;;;;8.00;0.75;;;;;;;12.59;33.58;103144.09;5037545;28;20098;-78
2022/04/28 09:25:38;;;;;;;7.30;1.08;;;;;;;13.17;33.47;103146.84;5056147;28;20851;-78
2022/04/28 09:28:04;;;;;;;9.68;1.40;;;;;;;12.49;33.15;103142.44;5037498;28;20041;-77
2022/04/28 09:30:47;;;;;;;12.57;0.93;;;;;;;11.72;34.78;103140.59;5021155;28;20470;-77
2022/04/28 09:33:32;;;;;;;10.02;0.93;;;;;;;12.62;33.37;103143.19;5054270;28;20042;-79
2022/04/28 09:36:24;;;;;;;4.65;0.70;;;;;;;12.24;33.39;103147.13;5017317;28;20072;-77
2022/04/28 09:38:57;;;;;;;8.98;1.05;;;;;;;12.99;33.25;103140.97;5021563;28;20402;-78
2022/04/28 09:44:19;;;;;;;7.82;0.88;;;;;;;11.74;34.93;103149.31;5053222;28;20053;-78
2022/04/28 09:46:51;;;;;;;6.88;0.70;;;;;;;11.82;35.55;103149.28;5032739;28;20037;-79
2022/04/28 09:49:22;;;;;;;4.10;0.90;;;;;;;12.51;33.71;103151.16;5054942;28;20107;-78
2022/04/28 09:52:10;;;;;;;9.55;0.75;;;;;;;12.58;33.52;103146.72;5030978;28;20028;-79
2022/04/28 09:55:04;;;;;;;7.75;0.90;;;;;;;13.67;31.96;103143.44;5037957;28;20064;-75
2022/04/28 09:57:45;;;;;;;5.85;0.70;;;;;;;13.75;31.21;103145.94;5023941;28;20091;-78
2022/04/28 10:00:12;;;;;;;8.40;0.50;;;;;;;13.97;30.82;103140.31;5057414;28;20029;-79
2022/04/28 10:02:54;;;;;;;2.63;0.55;;;;;;;14.11;30.69;103141.75;5053207;28;20049;-79
2022/04/28 10:05:20;;;;;;;4.35;0.63;;;;;;;13.28;31.24;103143.16;5044373;28;20036;-81
2022/04/28 10:07:56;;;;;;;4.93;0.63;;;;;;;13.86;31.24;103140.50;5025187;28;20057;-81
2022/04/28 10:10:25;;;;;;;4.85;0.82;;;;;;;14.44;30.03;103138.53;5042030;28;20029;-78
2022/04/28 10:12:52;;;;;;;6.97;0.90;;;;;;;14.97;30.06;103147.91;5043988;28;20049;-78
2022/04/28 10:15:38;;;;;;;8.35;0.60;;;;;;;14.56;29.79;103151.44;5060217;28;20036;-80
2022/04/28 10:18:09;;;;;;;3.22;0.47;;;;;;;14.56;30.85;103148.81;5024857;28;20299;-79
2022/04/28 10:20:41;;;;;;;8.18;1.48;;;;;;;15.17;28.27;103144.81;5043079;28;20044;-78
2022/04/28 10:23:10;;;;;;;3.25;0.50;;;;;;;14.82;28.81;103142.13;5072353;28;20051;-79
2022/04/28 10:34:56;;;;;;;10.35;0.50;;;;;;;13.80;31.31;103159.00;5044302;28;20037;-80
2022/04/28 10:37:30;;;;;;;7.72;0.32;;;;;;;13.31;31.06;103158.84;5059475;28;20041;-80
2022/04/28 10:39:56;;;;;;;7.32;0.82;;;;;;;12.67;32.74;103168.47;5057357;28;20064;-78
2022/04/28 10:42:28;;;;;;;6.13;0.40;;;;;;;14.02;30.83;103160.34;5043007;28;20100;-78
2022/04/28 10:44:55;;;;;;;3.67;1.20;;;;;;;14.69;29.14;103173.97;5058070;28;20037;-81
2022/04/28 10:47:37;;;;;;;2.80;0.57;;;;;;;15.38;28.87;103168.94;5075636;28;20045;-78
2022/04/28 10:50:20;;;;;;;6.25;0.30;;;;;;;14.85;29.45;103171.00;5038181;28;20083;-79
2022/04/28 10:52:59;;;;;;;6.32;0.82;;;;;;;14.11;30.36;103180.34;5040086;28;20057;-79
2022/04/28 10:55:41;;;;;;;7.13;0.50;;;;;;;13.91;31.00;103178.06;5040222;28;20039;-79
2022/04/28 10:58:24;;;;;;;3.47;0.80;;;;;;;14.09;30.66;103187.41;5038572;28;20606;-79
2022/04/28 11:00:58;;;;;;;9.05;0.73;;;;;;;13.41;31.83;103183.25;5057044;28;20065;-74
2022/04/28 11:03:42;;;;;;;4.30;0.52;;;;;;;14.30;30.61;103179.13;5039772;28;20055;-78
2022/04/28 11:06:10;;;;;;;10.38;0.75;;;;;;;13.67;31.12;103174.09;5057015;28;20086;-78
2022/04/28 11:08:37;;;;;;;6.50;0.22;;;;;;;13.91;31.53;103173.69;5038424;28;20044;-75
2022/04/28 11:11:04;;;;;;;8.90;0.95;;;;;;;13.92;30.73;103164.06;5046711;28;20053;-77
2022/04/28 11:13:31;;;;;;;6.97;0.47;;;;;;;14.38;30.91;103170.19;5057833;28;20045;-79
2022/04/28 11:15:57;;;;;;;3.33;0.30;;;;;;;14.27;30.15;103171.25;5038788;28;20092;-77
2022/04/28 11:18:24;;;;;;;6.57;0.95;;;;;;;14.11;30.17;103169.81;5027503;28;20123;-78
2022/04/28 11:20:50;;;;;;;12.90;0.40;;;;;;;14.67;30.30;103174.91;5038981;28;20045;-75
2022/04/28 11:23:19;;;;;;;4.78;0.45;;;;;;;14.10;30.61;103183.88;5057077;28;20981;-79
2022/04/28 11:25:44;;;;;;;2.10;0.77;;;;;;;13.91;29.82;103173.69;5040296;28;20033;-77
2022/04/28 11:28:10;;;;;;;4.78;0.40;;;;;;;14.63;29.68;103181.13;5039632;28;20045;-79
2022/04/28 11:30:41;;;;;;;4.72;0.77;;;;;;;14.21;30.12;103187.19;5028025;28;20027;-75
2022/04/28 11:33:10;;;;;;;2.65;0.35;;;;;;;13.94;29.82;103181.53;5055897;28;20033;-78
2022/04/28 11:35:38;;;;;;;2.47;0.20;;;;;;;14.05;30.00;103176.06;5031622;28;20091;-76
2022/04/28 11:38:04;;;;;;;5.13;0.22;;;;;;;13.85;30.28;103172.91;5024364;28;20040;-78
2022/04/28 11:40:35;;;;;;;2.70;0.22;;;;;;;14.42;29.93;103175.41;5057445;28;20098;-78
2022/04/28 11:43:02;;;;;;;6.43;0.52;;;;;;;13.83;30.70;103172.97;5041427;28;21099;-79
2022/04/28 11:45:30;;;;;;;3.83;0.63;;;;;;;13.81;29.98;103176.47;5042952;28;20029;-78
2022/04/28 11:47:59;;;;;;;5.82;0.70;;;;;;;14.52;29.31;103184.84;5038241;28;20044;-76
2022/04/28 11:50:27;;;;;;;5.72;0.70;;;;;;;14.61;30.04;103186.41;5023467;28;20682;-79
2022/04/28 11:53:11;;;;;;;7.95;0.65;;;;;;;14.42;28.60;103192.97;5026052;28;20078;-78
2022/04/28 11:55:40;;;;;;;7.25;0.50;;;;;;;13.89;28.58;103185.97;5041881;28;20288;-77
2022/04/28 11:58:08;;;;;;;5.15;0.43;;;;;;;13.80;29.40;103190.53;5056743;28;20045;-75
2022/04/28 12:00:45;;;;;;;6.20;1.17;;;;;;;13.66;29.92;103189.00;5023547;28;20047;-79
2022/04/28 12:03:26;;;;;;;3.83;0.40;;;;;;;14.23;29.18;103188.03;5039846;28;20100;-78
2022/04/28 12:05:52;;;;;;;9.23;0.50;;;;;;;14.17;29.24;103189.91;5035282;28;20025;-78
2022/04/28 12:08:21;;;;;;;4.20;0.30;;;;;;;14.53;28.04;103188.34;5056757;28;20033;-79
2022/04/28 12:16:19;;;;;;;3.38;0.20;;;;;;;14.41;28.84;103183.31;5041525;28;20041;-79
2022/04/28 12:21:37;;;;;;;3.80;0.30;;;;;;;14.13;29.43;103183.81;5058407;28;20601;-79
2022/04/28 12:24:11;;;;;;;5.47;0.20;;;;;;;13.78;28.99;103179.19;5030878;28;20049;-79
2022/04/28 12:26:41;;;;;;;6.60;0.30;;;;;;;13.53;30.53;103188.28;5056888;28;20060;-76
2022/04/28 12:29:08;;;;;;;7.38;0.55;;;;;;;13.52;29.44;103185.72;5054743;28;20059;-79
2022/04/28 12:31:34;;;;;;;2.50;0.30;;;;;;;14.27;29.57;103181.78;5040483;28;20029;-76
2022/04/28 12:34:08;;;;;;;3.45;0.40;;;;;;;14.17;29.38;103184.63;5021169;28;20396;-78
2022/04/28 12:37:03;;;;;;;4.38;0.43;;;;;;;13.97;28.93;103187.63;5055989;28;20071;-76
2022/04/28 12:39:30;;;;;;;5.57;0.68;;;;;;;13.38;30.48;103177.16;5035106;28;20033;-79
2022/04/28 12:41:56;;;;;;;4.88;0.45;;;;;;;13.96;29.27;103180.63;5053859;28;20045;-77
2022/04/28 12:44:24;;;;;;;6.82;0.50;;;;;;;13.61;29.55;103182.97;5022757;28;20018;-79
2022/04/28 12:46:55;;;;;;;6.47;0.52;;;;;;;13.82;29.65;103184.34;5036855;28;20415;-77